Flight Track Log - Related Links

Times and Time Zones

All times are in EDT time to prevent confusion due to time zone crossing. See the UAL1491 flight status page for this flight to view local times or setup timezone preferences in your user account.

Time Position Orientation Groundspeed Altitude Reporting Facility
EDT Latitude Longitude Course Direction KTS MPH feet Rate Location/Type
Wed 08:09:32 AM 33.4098 -111.9457 307° West  Level FlightAware Approximate
Wed 08:09:40 AM 33.4333 -111.9833 102° East 179 206 2,100  Level Phoenix TRACON
Wed 08:14:07 AM 33.3608 -111.5797 109° East 314 361 10,800 1,982 Climbing Albuquerque Center
Wed 08:15:07 AM 33.3236 -111.4536 109° East 364 419 12,900 2,100 Climbing Albuquerque Center
Wed 08:16:07 AM 33.2864 -111.3225 110° East 393 452 15,000 2,050 Climbing Albuquerque Center
Wed 08:17:07 AM 33.2447 -111.1867 108° East 418 481 17,000 2,200 Climbing Albuquerque Center
Wed 08:18:07 AM 33.2056 -111.0408 107° East 440 506 19,400 2,000 Climbing Albuquerque Center
Wed 08:19:07 AM 33.1719 -110.9131 109° East 445 512 21,000 1,650 Climbing Albuquerque Center
Wed 08:20:07 AM 33.1303 -110.7650 108° East 456 525 22,700 1,650 Climbing Albuquerque Center
Wed 08:21:07 AM 33.0886 -110.6122 109° East 469 540 24,300 1,700 Climbing Albuquerque Center
Wed 08:22:07 AM 33.0447 -110.4569 108° East 480 552 26,100 1,550 Climbing Albuquerque Center
Wed 08:23:07 AM 33.0028 -110.3044 107° East 480 552 27,400 1,250 Climbing Albuquerque Center
Wed 08:24:07 AM 32.9606 -110.1444 109° East 491 565 28,600 1,500 Climbing Albuquerque Center
Wed 08:25:07 AM 32.9161 -109.9872 109° East 491 565 30,400 1,900 Climbing Albuquerque Center
Wed 08:26:07 AM 32.8678 -109.8203 109° East 491 565 32,400 1,550 Climbing Albuquerque Center
Wed 08:27:07 AM 32.8247 -109.6683 109° East 486 559 33,500 1,050 Climbing Albuquerque Center
Wed 08:28:07 AM 32.7797 -109.5139 108° East 486 559 34,500 1,050 Climbing Albuquerque Center
Wed 08:29:07 AM 32.7386 -109.3600 110° East 491 565 35,600 1,100 Climbing Albuquerque Center
Wed 08:30:07 AM 32.6931 -109.2086 109° East 491 565 36,700 700 Climbing Albuquerque Center
Wed 08:31:07 AM 32.6494 -109.0547 109° East 491 565 37,000 150 Climbing Albuquerque Center
Wed 08:32:07 AM 32.6056 -108.9036 108° East 491 565 37,000  Level Albuquerque Center
Wed 08:33:07 AM 32.5697 -108.7700 109° East 491 565 37,000  Level Albuquerque Center
Wed 08:34:07 AM 32.5256 -108.6189 109° East 486 559 37,000  Level Albuquerque Center
Wed 08:35:07 AM 32.4811 -108.4683 110° East 486 559 37,000  Level Albuquerque Center
Wed 08:36:07 AM 32.4344 -108.3178 110° East 486 559 37,000  Level Albuquerque Center
Wed 08:37:07 AM 32.3894 -108.1722 109° East 486 559 37,000 -50 Level Albuquerque Center
Wed 08:38:07 AM 32.3447 -108.0194 108° East 486 559 36,900  Descending Albuquerque Center
Wed 08:39:07 AM 32.3017 -107.8669 110° East 486 559 37,000  Climbing Albuquerque Center
Wed 08:40:07 AM 32.2561 -107.7194 110° East 486 559 36,900 -50 Descending Albuquerque Center
Wed 08:41:07 AM 32.2106 -107.5694 109° East 486 559 36,900 50 Level Albuquerque Center
Wed 08:42:07 AM 32.1608 -107.4028 109° East 486 559 37,000 50 Climbing Albuquerque Center
Wed 08:43:07 AM 32.1169 -107.2508 110° East 486 559 37,000  Level Albuquerque Center
Wed 08:44:07 AM 32.0708 -107.1014 110° East 486 559 37,000  Level Albuquerque Center
Wed 08:45:07 AM 32.0225 -106.9475 109° East 486 559 37,000 -50 Level Albuquerque Center
Wed 08:46:07 AM 31.9781 -106.7986 110° East 486 559 36,900  Descending Albuquerque Center
Wed 08:47:07 AM 31.9314 -106.6497 110° East 486 559 37,000  Climbing Albuquerque Center
Wed 08:48:07 AM 31.8889 -106.5156 110° East 486 559 36,900 -50 Descending Albuquerque Center
Wed 08:49:07 AM 31.8439 -106.3669 109° East 481 554 36,900  Level Albuquerque Center
Wed 08:50:07 AM 31.8008 -106.2186 106° East 481 554 36,900 50 Level Albuquerque Center
Wed 08:51:07 AM 31.7639 -106.0653 107° East 481 554 37,000 50 Climbing Albuquerque Center
Wed 08:52:07 AM 31.7247 -105.9147 106° East 481 554 37,000  Level Albuquerque Center
Wed 08:53:07 AM 31.6872 -105.7617 106° East 481 554 37,000  Level Albuquerque Center
Wed 08:54:07 AM 31.6497 -105.6114 105° East 481 554 37,000 -50 Level Albuquerque Center
Wed 08:55:07 AM 31.6142 -105.4611 107° East 481 554 36,900 -50 Descending Albuquerque Center
Wed 08:56:07 AM 31.5742 -105.3108 107° East 481 554 36,900  Level Albuquerque Center
Wed 08:57:07 AM 31.5361 -105.1608 106° East 481 554 36,900 50 Level Albuquerque Center
Wed 08:58:07 AM 31.4978 -105.0061 107° East 481 554 37,000 50 Climbing Albuquerque Center
Wed 08:59:07 AM 31.4547 -104.8419 108° East 481 554 37,000  Level Albuquerque Center
Wed 09:00:07 AM 31.4139 -104.6925 107° East 481 554 37,000 -50 Level Albuquerque Center
Wed 09:01:07 AM 31.3753 -104.5453 107° East 476 548 36,900  Descending Albuquerque Center
Wed 09:02:07 AM 31.3361 -104.3961 107° East 476 548 37,000 50 Climbing Albuquerque Center
Wed 09:03:07 AM 31.2969 -104.2469 107° East 476 548 37,000  Level Albuquerque Center
Wed 09:04:07 AM 31.2578 -104.1003 108° East 476 548 37,000 -50 Level Albuquerque Center
Wed 09:05:07 AM 31.2183 -103.9561 107° East 476 548 36,900  Descending Albuquerque Center
Wed 09:06:07 AM 31.1806 -103.8075 109° East 476 548 37,000 50 Climbing Albuquerque Center
Wed 09:07:07 AM 31.1389 -103.6661 108° East 476 548 37,000 -50 Level Albuquerque Center
Wed 09:08:07 AM 31.0967 -103.5178 107° East 471 542 36,900  Descending Albuquerque Center
Wed 09:09:07 AM 31.0631 -103.3861 108° East 471 542 37,000  Climbing Albuquerque Center
Wed 09:10:07 AM 31.0231 -103.2428 108° East 476 548 36,900  Descending Albuquerque Center
Wed 09:11:07 AM 30.9825 -103.0969 108° East 471 542 37,000 50 Climbing Albuquerque Center
Wed 09:12:07 AM 30.9417 -102.9514 106° East 476 548 37,000  Level Albuquerque Center
Wed 09:13:07 AM 30.9050 -102.8036 107° East 476 548 37,000  Level Albuquerque Center
Wed 09:14:20 AM 30.8594 -102.6308 107° East 474 545 37,000  Level Houston Center
Wed 09:15:20 AM 30.8214 -102.4844 107° East 474 545 37,000  Level Houston Center
Wed 09:16:20 AM 30.7831 -102.3381 107° East 474 545 37,000 -50 Level Houston Center
Wed 09:17:20 AM 30.7444 -102.1942 106° East 474 545 36,900 -50 Descending Houston Center
Wed 09:18:20 AM 30.7078 -102.0481 108° East 474 545 36,900 50 Level Houston Center
Wed 09:19:20 AM 30.6672 -101.8994 107° East 479 551 37,000  Climbing Houston Center
Wed 09:20:20 AM 30.6283 -101.7533 107° East 479 551 36,900  Descending Houston Center
Wed 09:21:20 AM 30.5892 -101.6075 106° East 473 544 37,000 50 Climbing Houston Center
Wed 09:22:20 AM 30.5539 -101.4619 106° East 473 544 37,000  Level Houston Center
Wed 09:23:20 AM 30.5167 -101.3139 109° East 473 544 37,000 -50 Level Houston Center
Wed 09:24:20 AM 30.4731 -101.1681 107° East 473 544 36,900  Descending Houston Center
Wed 09:25:20 AM 30.4353 -101.0225 108° East 473 544 37,000 50 Climbing Houston Center
Wed 09:26:20 AM 30.3919 -100.8647 108° East 473 544 37,000 -50 Level Houston Center
Wed 09:27:20 AM 30.3550 -100.7342 109° East 472 543 36,900 -50 Descending Houston Center
Wed 09:28:20 AM 30.3125 -100.5886 109° East 472 543 36,900 50 Level Houston Center
Wed 09:29:20 AM 30.2697 -100.4481 109° East 477 549 37,000 50 Climbing Houston Center
Wed 09:30:20 AM 30.2269 -100.3028 107° East 472 543 37,000  Level Houston Center
Wed 09:31:20 AM 30.1881 -100.1603 109° East 472 543 37,000  Level Houston Center
Wed 09:32:20 AM 30.1467 -100.0178 103° East 472 543 37,000  Level Houston Center
Wed 09:33:20 AM 30.1150 -99.8569 109° East 489 563 37,000  Level Houston Center
Wed 09:34:20 AM 30.0714 -99.7144 110° East 483 556 37,000 -50 Level Houston Center
Wed 09:35:20 AM 30.0239 -99.5647 109° East 469 540 36,900 -50 Descending Houston Center
Wed 09:36:20 AM 29.9822 -99.4225 108° East 469 540 36,900 50 Level Houston Center
Wed 09:37:20 AM 29.9422 -99.2783 111° Southeast 464 534 37,000  Climbing Houston Center
Wed 09:38:20 AM 29.8958 -99.1408 113° Southeast 464 534 36,900  Descending Houston Center
Wed 09:39:20 AM 29.8503 -99.0178 113° Southeast 458 527 37,000 50 Climbing Houston Center
Wed 09:40:20 AM 29.7919 -98.8631 113° Southeast 474 545 37,000  Level Houston Center
Wed 09:41:20 AM 29.7464 -98.7403 113° Southeast 469 540 37,000  Level Houston Center
Wed 09:42:20 AM 29.6917 -98.5886 109° East 469 540 37,000  Level Houston Center
Wed 09:43:20 AM 29.6469 -98.4400 89° East 474 545 37,000  Level Houston Center
Wed 09:44:20 AM 29.6483 -98.2847 90° East 474 545 37,000  Level Houston Center
Wed 09:45:20 AM 29.6472 -98.1367 93° East 474 545 37,000  Level Houston Center
Wed 09:46:20 AM 29.6397 -97.9833 92° East 469 540 37,000  Level Houston Center
Wed 09:47:20 AM 29.6344 -97.8278 93° East 485 558 37,000 -50 Level Houston Center
Wed 09:48:20 AM 29.6267 -97.6747 94° East 485 558 36,900 -50 Descending Houston Center
Wed 09:49:20 AM 29.6186 -97.5261 94° East 480 552 36,900 -1,100 Level Houston Center
Wed 09:50:20 AM 29.6103 -97.3775 93° East 475 547 34,700 -2,800 Descending Houston Center
Wed 09:51:20 AM 29.6042 -97.2219 94° East 470 541 31,300 -3,400 Descending Houston Center
Wed 09:52:20 AM 29.5958 -97.0689 93° East 475 547 27,900 -3,050 Descending Houston Center
Wed 09:53:20 AM 29.5892 -96.9206 94° East 475 547 25,200 -2,700 Descending Houston Center
Wed 09:54:20 AM 29.5800 -96.7767 93° East 470 541 22,500 -2,400 Descending Houston Center
Wed 09:55:20 AM 29.5742 -96.6500 96° East 460 529 20,400 -2,549 Descending Houston Center
Wed 09:56:13 AM 29.5622 -96.5206 92° East 421 484 17,700 -2,550 Descending Houston Center
Wed 09:57:20 AM 29.5586 -96.3867 94° East 417 480 15,300 -2,126 Descending Houston Center
Wed 09:58:20 AM 29.5503 -96.2622 87° East 401 461 13,200 -1,700 Descending Houston Center
Wed 09:59:20 AM 29.5564 -96.1406 59° Northeast 389 448 11,900 -1,200 Descending Houston Center
Wed 10:00:20 AM 29.6100 -96.0378 60° Northeast 362 417 10,800 -1,000 Descending Houston Center
Wed 10:01:20 AM 29.6656 -95.9256 59° Northeast 362 417 9,900 -550 Descending Houston Center
Wed 10:02:20 AM 29.7122 -95.8367 59° Northeast 346 398 9,700 -700 Descending Houston Center
Wed 10:03:20 AM 29.7544 -95.7544 61° Northeast 315 362 8,500 -1,150 Descending Houston Center
Wed 10:04:20 AM 29.7944 -95.6700 58° Northeast 300 345 7,400 -1,050 Descending Houston Center
Wed 10:05:20 AM 29.8364 -95.5928 61° Northeast 289 333 6,400 -700 Descending Houston Center
Wed 10:06:20 AM 29.8764 -95.5103 75° East 289 333 6,000 -200 Descending Houston Center
Wed 10:07:20 AM 29.8953 -95.4272 88° East 283 326 6,000  Level Houston Center
Wed 10:08:20 AM 29.8975 -95.3483 90° East 268 308 6,000 -300 Level Houston Center
Wed 10:09:20 AM 29.8978 -95.2644 90° East 262 302 5,400 -600 Descending Houston Center

Login

Don't have an account? Register now (free) for customized features, flight alerts, and more!